Time;durP1;ratioP1;P1;durP2;ratioP2;P2;SDS_P1;SDS_P2;PMS_P1;PMS_P2;Temp;Humidity;BMP_temperature;BMP_pressure;BME280_temperature;BME280_humidity;BME280_pressure;Samples;Min_cycle;Max_cycle;Signal;HPM_P1;HPM_P2
2023/09/08 00:03:28;;;;;;;9.87;4.40;;;;;;;;;;10397594;28;20065;-79
2023/09/08 00:08:32;;;;;;;8.80;4.30;;;;;;;;;;10392785;28;20033;-78
2023/09/08 00:13:35;;;;;;;7.97;4.32;;;;;;;;;;10390288;28;20045;-79
2023/09/08 00:18:38;;;;;;;10.23;4.83;;;;;;;;;;10387666;28;20063;-78
2023/09/08 00:23:42;;;;;;;9.82;4.60;;;;;;;;;;10398151;28;20045;-79
2023/09/08 00:28:44;;;;;;;10.25;4.82;;;;;;;;;;10388027;28;20463;-78
2023/09/08 00:33:47;;;;;;;9.77;4.57;;;;;;;;;;10389534;28;20053;-78
2023/09/08 00:38:51;;;;;;;9.93;4.80;;;;;;;;;;10390575;28;20100;-78
2023/09/08 00:43:54;;;;;;;9.63;4.60;;;;;;;;;;10392750;28;20042;-79
2023/09/08 00:48:57;;;;;;;9.35;4.70;;;;;;;;;;10399804;28;20477;-79
2023/09/08 00:54:00;;;;;;;10.98;4.82;;;;;;;;;;10390932;28;20052;-78
2023/09/08 00:59:04;;;;;;;10.98;4.93;;;;;;;;;;10391175;28;20080;-76
2023/09/08 01:04:07;;;;;;;11.55;5.00;;;;;;;;;;10390808;28;20049;-78
2023/09/08 01:09:12;;;;;;;8.80;5.10;;;;;;;;;;10389996;28;20049;-77
2023/09/08 01:14:18;;;;;;;12.45;5.25;;;;;;;;;;10389998;28;20641;-78
2023/09/08 01:19:21;;;;;;;9.02;4.22;;;;;;;;;;10404550;28;20057;-78
2023/09/08 01:24:38;;;;;;;11.10;4.88;;;;;;;;;;10411999;28;20129;-77
2023/09/08 01:29:44;;;;;;;10.02;4.93;;;;;;;;;;10395052;28;20042;-78
2023/09/08 01:34:47;;;;;;;11.88;5.28;;;;;;;;;;10392434;28;20075;-78
2023/09/08 01:39:49;;;;;;;10.18;5.30;;;;;;;;;;10397295;28;20042;-79
2023/09/08 01:44:53;;;;;;;11.82;5.93;;;;;;;;;;10388059;28;20052;-79
2023/09/08 01:49:56;;;;;;;11.02;5.55;;;;;;;;;;10395302;28;20083;-80
2023/09/08 01:54:58;;;;;;;11.45;5.03;;;;;;;;;;10402191;28;20052;-79
2023/09/08 02:00:02;;;;;;;10.10;5.25;;;;;;;;;;10394569;28;20042;-79
2023/09/08 02:05:05;;;;;;;13.45;5.70;;;;;;;;;;10402073;28;20125;-78
2023/09/08 02:10:10;;;;;;;12.15;5.93;;;;;;;;;;10404441;28;20038;-78
2023/09/08 02:15:14;;;;;;;12.55;6.10;;;;;;;;;;10392838;28;20066;-79
2023/09/08 02:20:16;;;;;;;12.77;5.93;;;;;;;;;;10391508;28;20199;-78
2023/09/08 02:25:19;;;;;;;12.00;5.78;;;;;;;;;;10393245;28;20100;-79
2023/09/08 02:30:23;;;;;;;13.75;6.18;;;;;;;;;;10387599;28;20137;-78
2023/09/08 02:35:25;;;;;;;11.25;5.78;;;;;;;;;;10397923;28;20501;-78
2023/09/08 02:40:28;;;;;;;15.20;5.72;;;;;;;;;;10388255;28;20041;-79
2023/09/08 02:45:32;;;;;;;10.90;5.97;;;;;;;;;;10395248;28;20072;-78
2023/09/08 02:50:37;;;;;;;14.00;6.28;;;;;;;;;;10401567;28;20675;-77
2023/09/08 02:55:40;;;;;;;12.45;6.25;;;;;;;;;;10396211;28;20046;-79
2023/09/08 03:00:44;;;;;;;12.35;6.13;;;;;;;;;;10394194;28;20171;-78
2023/09/08 03:05:47;;;;;;;14.07;6.47;;;;;;;;;;10396753;28;20103;-80
2023/09/08 03:10:50;;;;;;;11.73;5.83;;;;;;;;;;10396187;28;20487;-79
2023/09/08 03:15:54;;;;;;;15.07;6.30;;;;;;;;;;10389414;28;20041;-79
2023/09/08 03:20:57;;;;;;;11.10;5.53;;;;;;;;;;10393166;28;20040;-78
2023/09/08 03:25:59;;;;;;;12.07;5.47;;;;;;;;;;10387496;28;20460;-78
2023/09/08 03:31:05;;;;;;;14.68;6.13;;;;;;;;;;10391346;28;20044;-78
2023/09/08 03:36:09;;;;;;;11.10;5.60;;;;;;;;;;10394917;28;20145;-78
2023/09/08 03:41:11;;;;;;;13.50;5.67;;;;;;;;;;10396087;28;20042;-78
2023/09/08 03:46:15;;;;;;;10.93;5.38;;;;;;;;;;10392302;28;20125;-78
2023/09/08 03:51:18;;;;;;;12.60;5.50;;;;;;;;;;10392508;28;20057;-78
2023/09/08 03:56:21;;;;;;;14.50;5.78;;;;;;;;;;10383486;28;20660;-78
2023/09/08 04:01:25;;;;;;;11.87;6.00;;;;;;;;;;10386959;28;20124;-79
2023/09/08 04:06:28;;;;;;;11.52;5.20;;;;;;;;;;10386864;28;20297;-78
2023/09/08 04:11:30;;;;;;;12.33;5.97;;;;;;;;;;10384398;28;20073;-78
2023/09/08 04:16:34;;;;;;;10.00;4.82;;;;;;;;;;10391791;28;20076;-78
2023/09/08 04:21:37;;;;;;;11.57;5.72;;;;;;;;;;10391567;28;20069;-78
2023/09/08 04:26:40;;;;;;;12.38;6.25;;;;;;;;;;10387388;28;20057;-79
2023/09/08 04:31:44;;;;;;;15.10;6.18;;;;;;;;;;10393077;28;20045;-79
2023/09/08 04:36:46;;;;;;;17.33;6.57;;;;;;;;;;10396769;28;20044;-79
2023/09/08 04:41:49;;;;;;;13.68;6.40;;;;;;;;;;10391740;28;20165;-79
2023/09/08 04:46:53;;;;;;;14.65;6.35;;;;;;;;;;10386377;28;20131;-79
2023/09/08 04:51:56;;;;;;;14.35;6.93;;;;;;;;;;10394283;28;20047;-78
2023/09/08 04:56:59;;;;;;;13.23;6.72;;;;;;;;;;10391018;28;20056;-79
2023/09/08 05:02:22;;;;;;;12.38;6.72;;;;;;;;;;10389572;28;20046;-79
2023/09/08 05:07:25;;;;;;;13.77;6.63;;;;;;;;;;10389837;28;20541;-80
2023/09/08 05:12:28;;;;;;;14.52;6.72;;;;;;;;;;10395034;28;20113;-79
2023/09/08 05:17:32;;;;;;;13.45;6.75;;;;;;;;;;10394918;28;20129;-80
2023/09/08 05:22:35;;;;;;;14.23;6.53;;;;;;;;;;10397650;28;20045;-79
2023/09/08 05:27:37;;;;;;;14.37;7.50;;;;;;;;;;10410159;28;20056;-79
2023/09/08 05:32:41;;;;;;;13.40;7.20;;;;;;;;;;10400416;28;20076;-80
2023/09/08 05:37:44;;;;;;;14.02;6.97;;;;;;;;;;10392029;28;20053;-79
2023/09/08 05:42:47;;;;;;;14.00;6.95;;;;;;;;;;10398249;28;20037;-80
2023/09/08 05:47:53;;;;;;;17.90;6.47;;;;;;;;;;10392273;28;20415;-80
2023/09/08 05:52:56;;;;;;;13.15;6.53;;;;;;;;;;10405214;28;20052;-80
2023/09/08 05:57:58;;;;;;;13.10;6.70;;;;;;;;;;10390596;28;20430;-80
2023/09/08 06:03:02;;;;;;;18.23;7.40;;;;;;;;;;10394298;28;20045;-79
2023/09/08 06:08:05;;;;;;;17.20;7.05;;;;;;;;;;10411486;28;20375;-79
2023/09/08 06:13:10;;;;;;;16.00;7.30;;;;;;;;;;10403274;28;20079;-79
2023/09/08 06:18:14;;;;;;;15.55;7.15;;;;;;;;;;10403266;28;20051;-78
2023/09/08 06:23:16;;;;;;;18.90;8.35;;;;;;;;;;10388415;28;20553;-79
2023/09/08 06:28:19;;;;;;;15.27;7.03;;;;;;;;;;10397641;28;20140;-80
2023/09/08 06:33:23;;;;;;;14.88;7.63;;;;;;;;;;10394706;28;20041;-80
2023/09/08 06:38:26;;;;;;;19.05;7.45;;;;;;;;;;10401041;28;20053;-77
2023/09/08 06:43:28;;;;;;;14.10;6.63;;;;;;;;;;10398879;28;20088;-79
2023/09/08 06:48:32;;;;;;;11.17;6.77;;;;;;;;;;10396364;28;20062;-78
2023/09/08 06:54:00;;;;;;;11.80;6.82;;;;;;;;;;10390010;28;20100;-80
2023/09/08 06:59:03;;;;;;;16.45;7.28;;;;;;;;;;10392553;28;20041;-79
2023/09/08 07:04:05;;;;;;;;;;;;;;;;;;10391812;28;20463;-79
2023/09/08 07:09:09;;;;;;;15.15;7.35;;;;;;;;;;10397703;28;19928;-80
2023/09/08 07:14:12;;;;;;;11.60;7.20;;;;;;;;;;10400344;28;20048;-79
2023/09/08 07:19:14;;;;;;;13.30;7.55;;;;;;;;;;10390408;28;20034;-80
2023/09/08 07:24:19;;;;;;;13.45;7.88;;;;;;;;;;10388350;28;20050;-80
2023/09/08 07:29:21;;;;;;;12.75;8.10;;;;;;;;;;10403144;28;20045;-80
2023/09/08 07:34:24;;;;;;;11.15;7.50;;;;;;;;;;10401030;28;20120;-80
2023/09/08 07:39:28;;;;;;;14.32;7.97;;;;;;;;;;10392450;28;20136;-81
2023/09/08 07:44:30;;;;;;;14.50;7.63;;;;;;;;;;10397751;28;20077;-80
2023/09/08 07:49:34;;;;;;;10.07;7.07;;;;;;;;;;10393819;28;20475;-80
2023/09/08 07:54:38;;;;;;;12.15;7.60;;;;;;;;;;10390010;28;20065;-79
2023/09/08 07:59:40;;;;;;;13.13;7.53;;;;;;;;;;10396457;28;20041;-80
2023/09/08 08:04:43;;;;;;;16.40;9.23;;;;;;;;;;10400070;28;20487;-80
2023/09/08 08:09:47;;;;;;;15.90;7.85;;;;;;;;;;10394081;28;20513;-80
2023/09/08 08:14:50;;;;;;;15.68;11.75;;;;;;;;;;10387711;28;20050;-80
2023/09/08 08:19:53;;;;;;;14.15;8.82;;;;;;;;;;10398318;28;20072;-80
2023/09/08 08:24:57;;;;;;;11.32;7.20;;;;;;;;;;10401092;28;20056;-80
2023/09/08 08:30:00;;;;;;;9.38;7.75;;;;;;;;;;10386120;28;20095;-80
2023/09/08 08:35:05;;;;;;;10.02;8.52;;;;;;;;;;10388590;28;20125;-80
2023/09/08 08:40:10;;;;;;;11.52;8.40;;;;;;;;;;10393384;28;20057;-80
2023/09/08 08:45:14;;;;;;;11.55;8.45;;;;;;;;;;10394886;28;20037;-81
2023/09/08 08:50:17;;;;;;;8.98;7.63;;;;;;;;;;10401658;28;20041;-78
2023/09/08 08:55:22;;;;;;;15.75;10.85;;;;;;;;;;10387220;28;20491;-81
2023/09/08 09:00:25;;;;;;;10.90;7.22;;;;;;;;;;10391172;28;20048;-81
2023/09/08 09:05:27;;;;;;;12.10;8.05;;;;;;;;;;10391235;28;20072;-80
2023/09/08 09:10:32;;;;;;;13.55;7.65;;;;;;;;;;10388441;28;20063;-80
2023/09/08 09:15:35;;;;;;;10.02;8.10;;;;;;;;;;10389181;28;20132;-80
2023/09/08 09:20:38;;;;;;;12.63;8.20;;;;;;;;;;10410399;28;20049;-80
2023/09/08 09:25:43;;;;;;;12.25;7.95;;;;;;;;;;10385740;28;20046;-80
2023/09/08 09:30:50;;;;;;;10.13;8.10;;;;;;;;;;10392173;28;20046;-81
2023/09/08 09:35:54;;;;;;;8.90;7.15;;;;;;;;;;10398255;28;20080;-81
2023/09/08 09:40:58;;;;;;;10.50;8.18;;;;;;;;;;10392967;28;21081;-81
2023/09/08 09:46:02;;;;;;;9.52;8.57;;;;;;;;;;10384944;28;20784;-81
2023/09/08 09:51:16;;;;;;;9.82;8.30;;;;;;;;;;10396423;28;20049;-81
2023/09/08 09:56:21;;;;;;;13.20;7.38;;;;;;;;;;10393202;28;20125;-82
2023/09/08 10:01:23;;;;;;;14.50;8.55;;;;;;;;;;10383897;28;20095;-81
2023/09/08 10:06:26;;;;;;;10.35;7.80;;;;;;;;;;10382682;28;20502;-80
2023/09/08 10:11:33;;;;;;;13.00;8.98;;;;;;;;;;10404350;28;20325;-80
2023/09/08 10:16:37;;;;;;;9.20;8.02;;;;;;;;;;10395537;28;20639;-81
2023/09/08 10:21:41;;;;;;;11.27;7.78;;;;;;;;;;10397802;28;20465;-80
2023/09/08 10:26:47;;;;;;;10.95;8.10;;;;;;;;;;10398764;28;20444;-80
2023/09/08 10:31:51;;;;;;;11.20;7.63;;;;;;;;;;10405847;28;20037;-81
2023/09/08 10:36:53;;;;;;;9.70;7.85;;;;;;;;;;10403101;28;20053;-81
2023/09/08 10:42:11;;;;;;;12.10;7.78;;;;;;;;;;10402012;28;20066;-81
2023/09/08 10:47:15;;;;;;;9.82;7.40;;;;;;;;;;10400920;28;20753;-80
2023/09/08 10:52:21;;;;;;;10.55;7.00;;;;;;;;;;10397697;28;20472;-81
2023/09/08 10:57:24;;;;;;;9.43;7.05;;;;;;;;;;10392755;28;20116;-80
2023/09/08 11:02:35;;;;;;;8.60;7.43;;;;;;;;;;10406515;28;20132;-82
2023/09/08 11:07:39;;;;;;;9.30;6.32;;;;;;;;;;10400755;28;20060;-81
2023/09/08 11:12:41;;;;;;;8.15;6.80;;;;;;;;;;10396089;28;20037;-81
2023/09/08 11:17:50;;;;;;;7.88;6.78;;;;;;;;;;10398489;28;20578;-81
2023/09/08 11:22:53;;;;;;;9.10;7.05;;;;;;;;;;10391369;28;20065;-81
2023/09/08 11:27:56;;;;;;;10.48;7.45;;;;;;;;;;10394644;28;20459;-81
2023/09/08 11:33:00;;;;;;;7.97;6.72;;;;;;;;;;10413420;28;20037;-82
2023/09/08 11:38:04;;;;;;;11.65;7.85;;;;;;;;;;10393997;28;20045;-81
2023/09/08 11:43:07;;;;;;;8.50;7.07;;;;;;;;;;10391630;28;20034;-81
2023/09/08 11:48:11;;;;;;;9.57;7.68;;;;;;;;;;10390857;28;20050;-81
2023/09/08 11:53:19;;;;;;;8.15;6.57;;;;;;;;;;10397257;28;20034;-81
2023/09/08 11:58:22;;;;;;;8.48;6.45;;;;;;;;;;10386439;28;20078;-80
2023/09/08 12:03:26;;;;;;;9.02;6.25;;;;;;;;;;10398929;28;20041;-82
2023/09/08 12:08:29;;;;;;;8.45;6.90;;;;;;;;;;10396304;28;20506;-81
2023/09/08 12:13:31;;;;;;;7.78;6.80;;;;;;;;;;10394252;28;20049;-81
2023/09/08 12:18:45;;;;;;;11.07;6.95;;;;;;;;;;10391641;28;20050;-81
2023/09/08 12:23:48;;;;;;;7.13;6.43;;;;;;;;;;10390423;28;20443;-81
2023/09/08 12:28:51;;;;;;;9.70;6.20;;;;;;;;;;10399070;28;20068;-82
2023/09/08 12:33:55;;;;;;;8.50;6.25;;;;;;;;;;10394603;28;20057;-81
2023/09/08 12:38:57;;;;;;;7.05;5.70;;;;;;;;;;10392696;28;20046;-82
2023/09/08 12:44:00;;;;;;;8.13;6.28;;;;;;;;;;10393035;28;20034;-82
2023/09/08 12:49:04;;;;;;;8.77;5.93;;;;;;;;;;10391993;28;20594;-81
2023/09/08 12:54:09;;;;;;;8.65;6.10;;;;;;;;;;10395866;28;20121;-81
2023/09/08 12:59:11;;;;;;;8.95;5.70;;;;;;;;;;10390029;28;20096;-81
2023/09/08 13:04:15;;;;;;;7.63;6.10;;;;;;;;;;10384348;28;20038;-81
2023/09/08 13:09:18;;;;;;;6.93;5.68;;;;;;;;;;10385050;28;20045;-81
2023/09/08 13:14:21;;;;;;;8.75;5.88;;;;;;;;;;10391247;28;20056;-81
2023/09/08 13:19:25;;;;;;;6.85;5.75;;;;;;;;;;10388669;28;20407;-81
2023/09/08 13:24:27;;;;;;;7.88;5.80;;;;;;;;;;10393379;28;20085;-81
2023/09/08 13:29:30;;;;;;;7.90;5.95;;;;;;;;;;10390058;28;20550;-81
2023/09/08 13:34:34;;;;;;;10.75;6.40;;;;;;;;;;10391846;28;20123;-81
2023/09/08 13:39:37;;;;;;;11.10;5.70;;;;;;;;;;10391098;28;20045;-81
2023/09/08 13:44:40;;;;;;;7.85;5.72;;;;;;;;;;10391022;28;20041;-80
2023/09/08 13:49:45;;;;;;;6.75;5.60;;;;;;;;;;10400949;28;20137;-80
2023/09/08 13:54:49;;;;;;;7.95;5.97;;;;;;;;;;10394396;28;20119;-81
2023/09/08 14:00:21;;;;;;;8.45;5.57;;;;;;;;;;10393732;28;20050;-81
2023/09/08 14:05:28;;;;;;;10.32;5.13;;;;;;;;;;10392983;28;20066;-80
2023/09/08 14:10:38;;;;;;;10.23;5.50;;;;;;;;;;10404417;28;20025;-80
2023/09/08 14:15:54;;;;;;;6.93;4.85;;;;;;;;;;10390675;28;20037;-81
2023/09/08 14:20:58;;;;;;;8.45;5.63;;;;;;;;;;10399969;28;20049;-80
2023/09/08 14:26:01;;;;;;;8.20;4.90;;;;;;;;;;10391101;28;20029;-80
2023/09/08 14:31:03;;;;;;;7.97;5.30;;;;;;;;;;10395774;28;20063;-80
2023/09/08 14:36:08;;;;;;;9.48;5.80;;;;;;;;;;10405119;28;20450;-80
2023/09/08 14:41:10;;;;;;;8.57;4.80;;;;;;;;;;10393986;28;20099;-81
2023/09/08 14:46:13;;;;;;;9.40;6.03;;;;;;;;;;10398488;28;20030;-80
2023/09/08 14:51:17;;;;;;;8.52;5.40;;;;;;;;;;10406679;28;20104;-80
2023/09/08 14:56:21;;;;;;;7.07;4.90;;;;;;;;;;10390142;28;20585;-80
2023/09/08 15:01:24;;;;;;;8.48;5.13;;;;;;;;;;10400726;28;20055;-80
2023/09/08 15:06:28;;;;;;;7.22;5.15;;;;;;;;;;10394802;28;20042;-80
2023/09/08 15:11:30;;;;;;;8.38;5.57;;;;;;;;;;10394339;28;20505;-80
2023/09/08 15:16:33;;;;;;;7.90;5.10;;;;;;;;;;10397257;28;20046;-79
2023/09/08 15:21:38;;;;;;;7.30;5.50;;;;;;;;;;10396627;28;20050;-80
2023/09/08 15:26:41;;;;;;;10.63;5.32;;;;;;;;;;10406848;28;20474;-80
2023/09/08 15:31:43;;;;;;;6.57;5.05;;;;;;;;;;10394705;28;20046;-79
2023/09/08 15:36:49;;;;;;;8.65;5.60;;;;;;;;;;10397132;28;20092;-79
2023/09/08 15:41:52;;;;;;;7.60;5.30;;;;;;;;;;10398445;28;20063;-79
2023/09/08 15:46:54;;;;;;;9.00;5.60;;;;;;;;;;10402233;28;20095;-80
2023/09/08 15:51:59;;;;;;;7.65;5.30;;;;;;;;;;10399310;28;20077;-79
2023/09/08 15:57:17;;;;;;;9.63;5.40;;;;;;;;;;10404568;28;20461;-79
2023/09/08 16:02:20;;;;;;;10.88;5.90;;;;;;;;;;10394367;28;20129;-81
2023/09/08 16:07:24;;;;;;;12.63;7.63;;;;;;;;;;10396281;28;20141;-79
2023/09/08 16:12:27;;;;;;;8.90;5.95;;;;;;;;;;10394365;28;20116;-79
2023/09/08 16:17:29;;;;;;;8.52;5.95;;;;;;;;;;10404642;28;20443;-79
2023/09/08 16:22:33;;;;;;;16.08;8.00;;;;;;;;;;10409240;28;20050;-78
2023/09/08 16:27:36;;;;;;;9.70;6.15;;;;;;;;;;10410285;28;20080;-79
2023/09/08 16:32:39;;;;;;;9.52;6.03;;;;;;;;;;10399557;28;20034;-79
2023/09/08 16:37:44;;;;;;;10.20;6.75;;;;;;;;;;10392768;28;20042;-80
2023/09/08 16:42:46;;;;;;;10.13;6.15;;;;;;;;;;10397914;28;20046;-79
2023/09/08 16:47:49;;;;;;;9.80;6.53;;;;;;;;;;10400664;28;20069;-78
2023/09/08 16:52:53;;;;;;;10.18;6.63;;;;;;;;;;10413939;28;20128;-80
2023/09/08 16:57:56;;;;;;;10.15;6.53;;;;;;;;;;10420019;28;20052;-79
2023/09/08 17:02:59;;;;;;;12.10;6.15;;;;;;;;;;10411846;28;20048;-77
2023/09/08 17:08:03;;;;;;;10.63;6.25;;;;;;;;;;10406251;28;20048;-79
2023/09/08 17:13:06;;;;;;;10.15;6.60;;;;;;;;;;10391915;28;20048;-80
2023/09/08 17:18:09;;;;;;;11.70;6.30;;;;;;;;;;10406442;28;20529;-80
2023/09/08 17:23:13;;;;;;;10.35;6.53;;;;;;;;;;10399499;28;20064;-81
2023/09/08 17:28:16;;;;;;;15.63;6.85;;;;;;;;;;10399281;28;20069;-79
2023/09/08 17:33:18;;;;;;;;;;;;;;;;;;10396421;28;20057;-77
2023/09/08 17:38:21;;;;;;;;;;;;;;;;;;10398929;28;19983;-80
2023/09/08 17:43:25;;;;;;;11.07;6.70;;;;;;;;;;10401916;28;20392;-79
2023/09/08 17:48:28;;;;;;;13.45;7.40;;;;;;;;;;10390665;28;20307;-80
2023/09/08 17:53:35;;;;;;;;;;;;;;;;;;10401342;28;20138;-80
2023/09/08 17:58:39;;;;;;;12.05;6.47;;;;;;;;;;10396805;28;19948;-79
2023/09/08 18:03:42;;;;;;;10.45;6.75;;;;;;;;;;10390392;28;20403;-80
2023/09/08 18:08:45;;;;;;;16.13;7.40;;;;;;;;;;10408522;28;20495;-80
2023/09/08 18:13:48;;;;;;;;;;;;;;;;;;10401771;28;20083;-79
2023/09/08 18:18:53;;;;;;;11.95;6.95;;;;;;;;;;10403860;28;20349;-79
2023/09/08 18:23:56;;;;;;;11.00;6.75;;;;;;;;;;10398716;28;20060;-80
2023/09/08 18:28:58;;;;;;;11.30;6.93;;;;;;;;;;10388452;28;20108;-80
2023/09/08 18:34:02;;;;;;;10.57;6.80;;;;;;;;;;10387121;28;20068;-79
2023/09/08 18:39:05;;;;;;;12.85;7.50;;;;;;;;;;10397736;28;20041;-80
2023/09/08 18:44:08;;;;;;;13.60;7.10;;;;;;;;;;10400335;28;20099;-80
2023/09/08 18:49:16;;;;;;;13.68;7.28;;;;;;;;;;10392678;28;20068;-79
2023/09/08 18:54:18;;;;;;;12.35;7.40;;;;;;;;;;10399690;28;20076;-80
2023/09/08 18:59:21;;;;;;;12.25;7.63;;;;;;;;;;10399585;28;20063;-79
2023/09/08 19:04:25;;;;;;;11.55;7.00;;;;;;;;;;10406863;28;20103;-79
2023/09/08 19:09:28;;;;;;;12.45;7.65;;;;;;;;;;10396641;28;20050;-79
2023/09/08 19:14:30;;;;;;;11.73;7.75;;;;;;;;;;10399121;28;20069;-80
2023/09/08 19:19:34;;;;;;;14.63;7.78;;;;;;;;;;10402381;28;20068;-80
2023/09/08 19:24:37;;;;;;;17.02;8.55;;;;;;;;;;10400062;28;20111;-80
2023/09/08 19:29:40;;;;;;;14.68;8.43;;;;;;;;;;10402240;28;20045;-80
2023/09/08 19:34:44;;;;;;;14.25;7.90;;;;;;;;;;10405939;28;20549;-79
2023/09/08 19:39:47;;;;;;;13.13;8.38;;;;;;;;;;10408722;28;20045;-79
2023/09/08 19:44:49;;;;;;;16.52;8.90;;;;;;;;;;10398740;28;20042;-80
2023/09/08 19:49:54;;;;;;;22.75;12.38;;;;;;;;;;10409023;28;20128;-79
2023/09/08 19:54:56;;;;;;;18.00;10.20;;;;;;;;;;10406767;28;20461;-79
2023/09/08 19:59:59;;;;;;;18.65;9.82;;;;;;;;;;10403434;28;20080;-80
2023/09/08 20:05:03;;;;;;;19.63;9.73;;;;;;;;;;10430016;28;20492;-77
2023/09/08 20:10:07;;;;;;;20.10;9.95;;;;;;;;;;10418533;28;20129;-79
2023/09/08 20:15:10;;;;;;;20.95;11.38;;;;;;;;;;10410580;28;20048;-81
2023/09/08 20:20:14;;;;;;;26.48;13.07;;;;;;;;;;10404164;28;20072;-79
2023/09/08 20:25:17;;;;;;;15.00;8.77;;;;;;;;;;10394378;28;20639;-80
2023/09/08 20:30:20;;;;;;;17.27;9.70;;;;;;;;;;10388476;28;20042;-80
2023/09/08 20:35:24;;;;;;;15.85;9.27;;;;;;;;;;10390903;28;20517;-81
2023/09/08 20:40:27;;;;;;;20.75;10.77;;;;;;;;;;10395856;28;20076;-80
2023/09/08 20:45:29;;;;;;;16.30;9.32;;;;;;;;;;10393473;28;20103;-80
2023/09/08 20:50:33;;;;;;;35.05;17.30;;;;;;;;;;10394188;28;20045;-80
2023/09/08 20:55:36;;;;;;;17.25;9.77;;;;;;;;;;10392490;28;20112;-80
2023/09/08 21:00:39;;;;;;;19.63;10.35;;;;;;;;;;10395780;28;20664;-80
2023/09/08 21:05:43;;;;;;;24.00;13.20;;;;;;;;;;10394843;28;20462;-79
2023/09/08 21:10:46;;;;;;;28.45;15.48;;;;;;;;;;10389735;28;20545;-79
2023/09/08 21:15:49;;;;;;;19.65;10.98;;;;;;;;;;10384960;28;20428;-80
2023/09/08 21:20:53;;;;;;;18.52;10.73;;;;;;;;;;10398319;28;20124;-80
2023/09/08 21:25:55;;;;;;;40.65;20.50;;;;;;;;;;10391818;28;20144;-80
2023/09/08 21:31:07;;;;;;;19.33;10.43;;;;;;;;;;10388737;28;20049;-80
2023/09/08 21:36:14;;;;;;;22.27;10.93;;;;;;;;;;10394558;28;20655;-80
2023/09/08 21:41:17;;;;;;;23.02;11.68;;;;;;;;;;10399837;28;20545;-80
2023/09/08 21:46:19;;;;;;;18.80;10.70;;;;;;;;;;10387633;28;20129;-80
2023/09/08 21:51:23;;;;;;;23.70;12.40;;;;;;;;;;10392748;28;20539;-79
2023/09/08 21:56:26;;;;;;;27.98;13.75;;;;;;;;;;10393405;28;20117;-80
2023/09/08 22:01:29;;;;;;;28.13;15.40;;;;;;;;;;10385290;28;20559;-80
2023/09/08 22:06:33;;;;;;;28.17;14.23;;;;;;;;;;10409516;28;20041;-80
2023/09/08 22:11:35;;;;;;;19.75;10.93;;;;;;;;;;10401145;28;20725;-80
2023/09/08 22:16:38;;;;;;;21.03;11.10;;;;;;;;;;10399212;28;20044;-80
2023/09/08 22:21:44;;;;;;;19.40;10.67;;;;;;;;;;10398319;28;20136;-80
2023/09/08 22:26:46;;;;;;;28.35;13.55;;;;;;;;;;10403799;28;20048;-79
2023/09/08 22:31:49;;;;;;;20.70;11.27;;;;;;;;;;10398487;28;20069;-81
2023/09/08 22:36:53;;;;;;;20.70;10.60;;;;;;;;;;10392329;28;20555;-78
2023/09/08 22:41:56;;;;;;;15.52;9.18;;;;;;;;;;10398067;28;20054;-79
2023/09/08 22:46:58;;;;;;;19.83;11.10;;;;;;;;;;10396878;28;20243;-79
2023/09/08 22:52:03;;;;;;;20.70;10.20;;;;;;;;;;10391839;28;20061;-79
2023/09/08 22:57:05;;;;;;;18.85;10.00;;;;;;;;;;10391915;28;20068;-78
2023/09/08 23:02:08;;;;;;;28.83;14.97;;;;;;;;;;10397820;28;20458;-78
2023/09/08 23:07:13;;;;;;;19.75;10.30;;;;;;;;;;10402560;28;20038;-79
2023/09/08 23:12:15;;;;;;;19.00;10.65;;;;;;;;;;10400135;28;20132;-79
2023/09/08 23:17:18;;;;;;;20.10;10.70;;;;;;;;;;10397276;28;20165;-79
2023/09/08 23:22:22;;;;;;;21.17;10.73;;;;;;;;;;10393894;28;20429;-79
2023/09/08 23:27:25;;;;;;;20.40;10.15;;;;;;;;;;10407655;28;20073;-79
2023/09/08 23:32:27;;;;;;;22.57;10.57;;;;;;;;;;10394359;28;20515;-79
2023/09/08 23:37:33;;;;;;;20.13;10.25;;;;;;;;;;10393438;28;20133;-80
2023/09/08 23:42:36;;;;;;;18.30;10.10;;;;;;;;;;10388220;28;20033;-80
2023/09/08 23:47:39;;;;;;;19.77;10.10;;;;;;;;;;10395085;28;20111;-80
2023/09/08 23:52:43;;;;;;;18.38;9.77;;;;;;;;;;10391420;28;20085;-80
2023/09/08 23:57:46;;;;;;;20.58;10.38;;;;;;;;;;10392588;28;20061;-80
